sensor_id;sensor_type;location;lat;lon;timestamp;P1;durP1;ratioP1;P2;durP2;ratioP2
45534;SDS011;35892;48.798;9.698;2022-07-29T00:01:39;8.95;;;7.70;;
45534;SDS011;35892;48.798;9.698;2022-07-29T00:04:09;8.48;;;7.65;;
45534;SDS011;35892;48.798;9.698;2022-07-29T00:06:36;8.18;;;6.22;;
45534;SDS011;35892;48.798;9.698;2022-07-29T00:09:08;11.25;;;8.80;;
45534;SDS011;35892;48.798;9.698;2022-07-29T00:11:37;9.43;;;8.45;;
45534;SDS011;35892;48.798;9.698;2022-07-29T00:14:04;10.55;;;9.45;;
45534;SDS011;35892;48.798;9.698;2022-07-29T00:16:36;13.13;;;11.82;;
45534;SDS011;35892;48.798;9.698;2022-07-29T00:19:03;10.18;;;8.52;;
45534;SDS011;35892;48.798;9.698;2022-07-29T00:21:30;7.60;;;6.60;;
45534;SDS011;35892;48.798;9.698;2022-07-29T00:23:57;9.65;;;7.03;;
45534;SDS011;35892;48.798;9.698;2022-07-29T00:26:23;7.70;;;6.65;;
45534;SDS011;35892;48.798;9.698;2022-07-29T00:29:00;7.50;;;6.75;;
45534;SDS011;35892;48.798;9.698;2022-07-29T00:31:51;5.95;;;5.45;;
45534;SDS011;35892;48.798;9.698;2022-07-29T00:34:20;6.80;;;5.05;;
45534;SDS011;35892;48.798;9.698;2022-07-29T00:37:05;7.20;;;6.20;;
45534;SDS011;35892;48.798;9.698;2022-07-29T00:39:33;7.00;;;6.07;;
45534;SDS011;35892;48.798;9.698;2022-07-29T00:42:02;7.43;;;5.90;;
45534;SDS011;35892;48.798;9.698;2022-07-29T00:44:32;5.30;;;4.78;;
45534;SDS011;35892;48.798;9.698;2022-07-29T00:47:04;6.63;;;6.03;;
45534;SDS011;35892;48.798;9.698;2022-07-29T00:49:32;7.05;;;5.82;;
45534;SDS011;35892;48.798;9.698;2022-07-29T00:52:06;7.10;;;5.47;;
45534;SDS011;35892;48.798;9.698;2022-07-29T00:54:39;5.57;;;5.07;;
45534;SDS011;35892;48.798;9.698;2022-07-29T00:57:12;5.55;;;5.05;;
45534;SDS011;35892;48.798;9.698;2022-07-29T00:59:39;6.57;;;5.82;;
45534;SDS011;35892;48.798;9.698;2022-07-29T01:02:06;6.95;;;6.05;;
45534;SDS011;35892;48.798;9.698;2022-07-29T01:04:33;6.85;;;6.25;;
45534;SDS011;35892;48.798;9.698;2022-07-29T01:07:02;8.40;;;6.85;;
45534;SDS011;35892;48.798;9.698;2022-07-29T01:09:33;7.28;;;6.68;;
45534;SDS011;35892;48.798;9.698;2022-07-29T01:14:49;7.65;;;6.05;;
45534;SDS011;35892;48.798;9.698;2022-07-29T01:31:07;5.57;;;5.18;;
45534;SDS011;35892;48.798;9.698;2022-07-29T01:33:52;6.18;;;5.57;;
45534;SDS011;35892;48.798;9.698;2022-07-29T01:39:05;6.53;;;5.03;;
45534;SDS011;35892;48.798;9.698;2022-07-29T01:41:36;7.22;;;6.15;;
45534;SDS011;35892;48.798;9.698;2022-07-29T01:44:18;6.22;;;5.72;;
45534;SDS011;35892;48.798;9.698;2022-07-29T01:46:56;7.28;;;6.68;;
45534;SDS011;35892;48.798;9.698;2022-07-29T01:49:28;10.45;;;9.55;;
45534;SDS011;35892;48.798;9.698;2022-07-29T01:54:54;7.55;;;6.95;;
45534;SDS011;35892;48.798;9.698;2022-07-29T01:57:29;8.30;;;7.38;;
45534;SDS011;35892;48.798;9.698;2022-07-29T01:59:59;7.38;;;6.68;;
45534;SDS011;35892;48.798;9.698;2022-07-29T02:02:30;7.32;;;6.32;;
45534;SDS011;35892;48.798;9.698;2022-07-29T02:04:59;9.05;;;7.13;;
45534;SDS011;35892;48.798;9.698;2022-07-29T02:07:29;8.35;;;6.85;;
45534;SDS011;35892;48.798;9.698;2022-07-29T02:10:03;8.02;;;7.32;;
45534;SDS011;35892;48.798;9.698;2022-07-29T02:12:32;8.75;;;6.57;;
45534;SDS011;35892;48.798;9.698;2022-07-29T02:15:04;8.25;;;7.30;;
45534;SDS011;35892;48.798;9.698;2022-07-29T02:17:41;8.10;;;7.10;;
45534;SDS011;35892;48.798;9.698;2022-07-29T02:20:17;8.80;;;8.00;;
45534;SDS011;35892;48.798;9.698;2022-07-29T02:22:46;10.13;;;8.73;;
45534;SDS011;35892;48.798;9.698;2022-07-29T02:25:15;11.15;;;10.15;;
45534;SDS011;35892;48.798;9.698;2022-07-29T02:27:43;10.50;;;9.40;;
45534;SDS011;35892;48.798;9.698;2022-07-29T02:30:13;11.90;;;10.50;;
45534;SDS011;35892;48.798;9.698;2022-07-29T02:32:43;8.27;;;7.40;;
45534;SDS011;35892;48.798;9.698;2022-07-29T02:35:13;9.13;;;8.13;;
45534;SDS011;35892;48.798;9.698;2022-07-29T02:37:41;9.88;;;8.88;;
45534;SDS011;35892;48.798;9.698;2022-07-29T02:40:11;7.18;;;6.55;;
45534;SDS011;35892;48.798;9.698;2022-07-29T02:42:41;9.48;;;8.57;;
45534;SDS011;35892;48.798;9.698;2022-07-29T02:45:10;9.90;;;8.35;;
45534;SDS011;35892;48.798;9.698;2022-07-29T02:47:41;9.10;;;8.30;;
45534;SDS011;35892;48.798;9.698;2022-07-29T02:52:52;8.27;;;7.55;;
45534;SDS011;35892;48.798;9.698;2022-07-29T02:55:32;7.32;;;5.72;;
45534;SDS011;35892;48.798;9.698;2022-07-29T02:58:03;8.07;;;6.28;;
45534;SDS011;35892;48.798;9.698;2022-07-29T03:00:37;8.85;;;8.13;;
45534;SDS011;35892;48.798;9.698;2022-07-29T03:03:07;7.68;;;6.88;;
45534;SDS011;35892;48.798;9.698;2022-07-29T03:08:06;5.15;;;4.65;;
45534;SDS011;35892;48.798;9.698;2022-07-29T03:10:37;6.53;;;5.93;;
45534;SDS011;35892;48.798;9.698;2022-07-29T03:13:08;7.30;;;5.88;;
45534;SDS011;35892;48.798;9.698;2022-07-29T03:15:36;7.72;;;7.10;;
45534;SDS011;35892;48.798;9.698;2022-07-29T03:18:03;8.63;;;7.25;;
45534;SDS011;35892;48.798;9.698;2022-07-29T03:20:32;8.05;;;7.30;;
45534;SDS011;35892;48.798;9.698;2022-07-29T03:22:59;7.10;;;6.47;;
45534;SDS011;35892;48.798;9.698;2022-07-29T03:25:26;7.93;;;7.22;;
45534;SDS011;35892;48.798;9.698;2022-07-29T03:27:53;8.57;;;7.68;;
45534;SDS011;35892;48.798;9.698;2022-07-29T03:30:20;6.57;;;5.85;;
45534;SDS011;35892;48.798;9.698;2022-07-29T03:32:49;7.82;;;6.95;;
45534;SDS011;35892;48.798;9.698;2022-07-29T03:35:18;5.93;;;5.18;;
45534;SDS011;35892;48.798;9.698;2022-07-29T03:37:46;9.10;;;7.28;;
45534;SDS011;35892;48.798;9.698;2022-07-29T03:40:26;8.27;;;6.68;;
45534;SDS011;35892;48.798;9.698;2022-07-29T03:45:28;10.73;;;6.97;;
45534;SDS011;35892;48.798;9.698;2022-07-29T03:47:57;8.00;;;7.20;;
45534;SDS011;35892;48.798;9.698;2022-07-29T03:50:28;21.65;;;7.30;;
45534;SDS011;35892;48.798;9.698;2022-07-29T03:52:57;11.57;;;7.20;;
45534;SDS011;35892;48.798;9.698;2022-07-29T03:55:24;23.75;;;6.13;;
45534;SDS011;35892;48.798;9.698;2022-07-29T03:57:52;26.20;;;8.35;;
45534;SDS011;35892;48.798;9.698;2022-07-29T04:00:23;6.50;;;5.88;;
45534;SDS011;35892;48.798;9.698;2022-07-29T04:02:56;7.80;;;4.90;;
45534;SDS011;35892;48.798;9.698;2022-07-29T04:05:23;7.50;;;5.78;;
45534;SDS011;35892;48.798;9.698;2022-07-29T04:07:52;16.88;;;6.65;;
45534;SDS011;35892;48.798;9.698;2022-07-29T04:10:19;18.23;;;6.35;;
45534;SDS011;35892;48.798;9.698;2022-07-29T04:12:57;27.98;;;6.53;;
45534;SDS011;35892;48.798;9.698;2022-07-29T04:15:29;15.45;;;6.63;;
45534;SDS011;35892;48.798;9.698;2022-07-29T04:17:58;7.93;;;7.13;;
45534;SDS011;35892;48.798;9.698;2022-07-29T04:20:27;7.95;;;6.70;;
45534;SDS011;35892;48.798;9.698;2022-07-29T04:22:56;12.38;;;7.50;;
45534;SDS011;35892;48.798;9.698;2022-07-29T04:25:23;5.68;;;5.18;;
45534;SDS011;35892;48.798;9.698;2022-07-29T04:27:52;9.32;;;6.70;;
45534;SDS011;35892;48.798;9.698;2022-07-29T04:30:27;8.23;;;6.50;;
45534;SDS011;35892;48.798;9.698;2022-07-29T04:33:00;11.70;;;6.80;;
45534;SDS011;35892;48.798;9.698;2022-07-29T04:35:33;8.68;;;6.30;;
45534;SDS011;35892;48.798;9.698;2022-07-29T04:38:15;8.82;;;6.20;;
45534;SDS011;35892;48.798;9.698;2022-07-29T04:40:44;11.40;;;5.03;;
45534;SDS011;35892;48.798;9.698;2022-07-29T04:43:12;5.45;;;4.97;;
45534;SDS011;35892;48.798;9.698;2022-07-29T04:45:40;8.93;;;4.88;;
45534;SDS011;35892;48.798;9.698;2022-07-29T04:48:10;15.85;;;5.72;;
45534;SDS011;35892;48.798;9.698;2022-07-29T04:50:39;8.18;;;5.93;;
45534;SDS011;35892;48.798;9.698;2022-07-29T04:53:10;15.50;;;6.28;;
45534;SDS011;35892;48.798;9.698;2022-07-29T04:55:39;16.80;;;8.35;;
45534;SDS011;35892;48.798;9.698;2022-07-29T04:58:06;13.25;;;6.13;;
45534;SDS011;35892;48.798;9.698;2022-07-29T05:00:33;6.93;;;6.05;;
45534;SDS011;35892;48.798;9.698;2022-07-29T05:03:00;12.88;;;6.22;;
45534;SDS011;35892;48.798;9.698;2022-07-29T05:05:30;5.47;;;4.97;;
45534;SDS011;35892;48.798;9.698;2022-07-29T05:07:57;9.68;;;5.85;;
45534;SDS011;35892;48.798;9.698;2022-07-29T05:10:24;4.57;;;4.10;;
45534;SDS011;35892;48.798;9.698;2022-07-29T05:12:51;17.70;;;6.00;;
45534;SDS011;35892;48.798;9.698;2022-07-29T05:15:18;5.00;;;4.55;;
45534;SDS011;35892;48.798;9.698;2022-07-29T05:17:47;6.43;;;5.80;;
45534;SDS011;35892;48.798;9.698;2022-07-29T05:20:18;6.15;;;5.55;;
45534;SDS011;35892;48.798;9.698;2022-07-29T05:22:54;8.23;;;7.45;;
45534;SDS011;35892;48.798;9.698;2022-07-29T05:25:28;6.70;;;5.72;;
45534;SDS011;35892;48.798;9.698;2022-07-29T05:28:12;14.48;;;5.50;;
45534;SDS011;35892;48.798;9.698;2022-07-29T05:30:38;9.32;;;5.93;;
45534;SDS011;35892;48.798;9.698;2022-07-29T05:33:08;5.00;;;4.25;;
45534;SDS011;35892;48.798;9.698;2022-07-29T05:35:54;4.97;;;4.57;;
45534;SDS011;35892;48.798;9.698;2022-07-29T05:38:26;6.13;;;5.57;;
45534;SDS011;35892;48.798;9.698;2022-07-29T05:40:56;6.95;;;5.55;;
45534;SDS011;35892;48.798;9.698;2022-07-29T05:43:29;4.63;;;4.22;;
45534;SDS011;35892;48.798;9.698;2022-07-29T05:45:56;4.28;;;2.92;;
45534;SDS011;35892;48.798;9.698;2022-07-29T05:48:26;4.45;;;4.05;;
45534;SDS011;35892;48.798;9.698;2022-07-29T05:50:53;3.78;;;3.47;;
45534;SDS011;35892;48.798;9.698;2022-07-29T05:53:20;4.22;;;3.90;;
45534;SDS011;35892;48.798;9.698;2022-07-29T05:55:48;3.55;;;3.25;;
45534;SDS011;35892;48.798;9.698;2022-07-29T05:58:15;3.50;;;3.20;;
45534;SDS011;35892;48.798;9.698;2022-07-29T06:00:46;4.13;;;3.83;;
45534;SDS011;35892;48.798;9.698;2022-07-29T06:03:13;4.13;;;3.72;;
45534;SDS011;35892;48.798;9.698;2022-07-29T06:05:45;3.92;;;3.63;;
45534;SDS011;35892;48.798;9.698;2022-07-29T06:08:13;4.25;;;3.45;;
45534;SDS011;35892;48.798;9.698;2022-07-29T06:10:43;3.63;;;3.33;;
45534;SDS011;35892;48.798;9.698;2022-07-29T06:13:10;3.15;;;2.95;;
45534;SDS011;35892;48.798;9.698;2022-07-29T06:15:39;3.47;;;2.63;;
45534;SDS011;35892;48.798;9.698;2022-07-29T06:18:06;4.32;;;3.17;;
45534;SDS011;35892;48.798;9.698;2022-07-29T06:20:36;3.75;;;3.45;;
45534;SDS011;35892;48.798;9.698;2022-07-29T06:23:03;3.70;;;3.40;;
45534;SDS011;35892;48.798;9.698;2022-07-29T06:25:33;2.83;;;2.63;;
45534;SDS011;35892;48.798;9.698;2022-07-29T06:28:01;4.60;;;4.20;;
45534;SDS011;35892;48.798;9.698;2022-07-29T06:30:29;3.67;;;3.38;;
45534;SDS011;35892;48.798;9.698;2022-07-29T06:32:59;3.90;;;3.60;;
45534;SDS011;35892;48.798;9.698;2022-07-29T06:35:27;4.80;;;4.40;;
45534;SDS011;35892;48.798;9.698;2022-07-29T06:38:07;4.18;;;3.83;;
45534;SDS011;35892;48.798;9.698;2022-07-29T06:40:59;4.57;;;4.18;;
45534;SDS011;35892;48.798;9.698;2022-07-29T06:43:29;4.95;;;4.43;;
45534;SDS011;35892;48.798;9.698;2022-07-29T06:46:17;5.40;;;4.90;;
45534;SDS011;35892;48.798;9.698;2022-07-29T06:48:45;5.00;;;4.50;;
45534;SDS011;35892;48.798;9.698;2022-07-29T06:51:15;6.88;;;5.25;;
45534;SDS011;35892;48.798;9.698;2022-07-29T06:53:49;5.47;;;4.43;;
45534;SDS011;35892;48.798;9.698;2022-07-29T06:56:28;7.47;;;5.03;;
45534;SDS011;35892;48.798;9.698;2022-07-29T06:59:05;4.65;;;4.25;;
45534;SDS011;35892;48.798;9.698;2022-07-29T07:01:33;6.10;;;5.50;;
45534;SDS011;35892;48.798;9.698;2022-07-29T07:04:01;6.10;;;5.20;;
45534;SDS011;35892;48.798;9.698;2022-07-29T07:06:30;6.97;;;5.32;;
45534;SDS011;35892;48.798;9.698;2022-07-29T07:08:59;5.30;;;4.80;;
45534;SDS011;35892;48.798;9.698;2022-07-29T07:11:31;8.70;;;5.93;;
45534;SDS011;35892;48.798;9.698;2022-07-29T07:13:58;6.03;;;4.88;;
45534;SDS011;35892;48.798;9.698;2022-07-29T07:16:29;4.23;;;3.70;;
45534;SDS011;35892;48.798;9.698;2022-07-29T07:19:01;7.65;;;4.93;;
45534;SDS011;35892;48.798;9.698;2022-07-29T07:21:28;4.65;;;3.95;;
45534;SDS011;35892;48.798;9.698;2022-07-29T07:23:56;4.50;;;4.05;;
45534;SDS011;35892;48.798;9.698;2022-07-29T07:26:23;4.47;;;3.70;;
45534;SDS011;35892;48.798;9.698;2022-07-29T07:28:51;4.82;;;3.55;;
45534;SDS011;35892;48.798;9.698;2022-07-29T07:31:17;5.05;;;3.78;;
45534;SDS011;35892;48.798;9.698;2022-07-29T07:33:44;5.82;;;4.18;;
45534;SDS011;35892;48.798;9.698;2022-07-29T07:36:11;4.85;;;3.55;;
45534;SDS011;35892;48.798;9.698;2022-07-29T07:38:38;4.10;;;3.70;;
45534;SDS011;35892;48.798;9.698;2022-07-29T07:41:05;5.07;;;3.70;;
45534;SDS011;35892;48.798;9.698;2022-07-29T07:43:32;4.78;;;3.50;;
45534;SDS011;35892;48.798;9.698;2022-07-29T07:46:01;3.45;;;3.10;;
45534;SDS011;35892;48.798;9.698;2022-07-29T07:48:30;5.93;;;3.60;;
45534;SDS011;35892;48.798;9.698;2022-07-29T07:50:57;4.28;;;3.05;;
45534;SDS011;35892;48.798;9.698;2022-07-29T07:53:24;4.60;;;3.20;;
45534;SDS011;35892;48.798;9.698;2022-07-29T07:55:56;3.38;;;2.80;;
45534;SDS011;35892;48.798;9.698;2022-07-29T07:58:36;3.45;;;2.80;;
45534;SDS011;35892;48.798;9.698;2022-07-29T08:01:05;4.47;;;3.05;;
45534;SDS011;35892;48.798;9.698;2022-07-29T08:03:33;3.33;;;2.70;;
45534;SDS011;35892;48.798;9.698;2022-07-29T08:05:59;4.53;;;3.15;;
45534;SDS011;35892;48.798;9.698;2022-07-29T08:08:26;3.88;;;2.97;;
45534;SDS011;35892;48.798;9.698;2022-07-29T08:10:53;2.97;;;2.53;;
45534;SDS011;35892;48.798;9.698;2022-07-29T08:13:24;3.15;;;2.30;;
45534;SDS011;35892;48.798;9.698;2022-07-29T08:15:58;3.63;;;2.38;;
45534;SDS011;35892;48.798;9.698;2022-07-29T08:18:38;3.00;;;2.47;;
45534;SDS011;35892;48.798;9.698;2022-07-29T08:21:07;1.88;;;1.67;;
45534;SDS011;35892;48.798;9.698;2022-07-29T08:23:33;1.98;;;1.77;;
45534;SDS011;35892;48.798;9.698;2022-07-29T08:26:19;3.00;;;1.98;;
45534;SDS011;35892;48.798;9.698;2022-07-29T08:28:48;2.30;;;1.90;;
45534;SDS011;35892;48.798;9.698;2022-07-29T08:31:17;2.35;;;2.00;;
45534;SDS011;35892;48.798;9.698;2022-07-29T08:33:44;2.63;;;1.90;;
45534;SDS011;35892;48.798;9.698;2022-07-29T08:36:11;3.83;;;1.85;;
45534;SDS011;35892;48.798;9.698;2022-07-29T08:38:41;1.90;;;1.70;;
45534;SDS011;35892;48.798;9.698;2022-07-29T08:41:13;3.50;;;1.77;;
45534;SDS011;35892;48.798;9.698;2022-07-29T08:43:40;2.13;;;1.88;;
45534;SDS011;35892;48.798;9.698;2022-07-29T08:46:07;2.00;;;1.80;;
45534;SDS011;35892;48.798;9.698;2022-07-29T08:48:34;2.08;;;1.45;;
45534;SDS011;35892;48.798;9.698;2022-07-29T08:51:02;2.20;;;1.83;;
45534;SDS011;35892;48.798;9.698;2022-07-29T08:53:31;4.18;;;2.05;;
45534;SDS011;35892;48.798;9.698;2022-07-29T08:55:59;2.53;;;2.22;;
45534;SDS011;35892;48.798;9.698;2022-07-29T08:58:30;2.42;;;2.10;;
45534;SDS011;35892;48.798;9.698;2022-07-29T09:01:02;3.65;;;2.38;;
45534;SDS011;35892;48.798;9.698;2022-07-29T09:03:33;2.78;;;2.30;;
45534;SDS011;35892;48.798;9.698;2022-07-29T09:06:02;4.13;;;2.40;;
45534;SDS011;35892;48.798;9.698;2022-07-29T09:08:32;4.28;;;2.25;;
45534;SDS011;35892;48.798;9.698;2022-07-29T09:11:02;2.20;;;2.00;;
45534;SDS011;35892;48.798;9.698;2022-07-29T09:13:30;2.92;;;2.50;;
45534;SDS011;35892;48.798;9.698;2022-07-29T09:16:02;2.58;;;2.33;;
45534;SDS011;35892;48.798;9.698;2022-07-29T09:18:35;4.30;;;2.70;;
45534;SDS011;35892;48.798;9.698;2022-07-29T09:21:10;4.15;;;2.80;;
45534;SDS011;35892;48.798;9.698;2022-07-29T09:24:04;2.78;;;2.45;;
45534;SDS011;35892;48.798;9.698;2022-07-29T09:26:36;3.25;;;2.67;;
45534;SDS011;35892;48.798;9.698;2022-07-29T09:29:11;3.63;;;2.20;;
45534;SDS011;35892;48.798;9.698;2022-07-29T09:31:40;3.30;;;2.70;;
45534;SDS011;35892;48.798;9.698;2022-07-29T09:34:12;6.05;;;2.80;;
45534;SDS011;35892;48.798;9.698;2022-07-29T09:36:42;2.97;;;2.38;;
45534;SDS011;35892;48.798;9.698;2022-07-29T09:39:10;5.07;;;2.83;;
45534;SDS011;35892;48.798;9.698;2022-07-29T09:42:11;3.80;;;2.30;;
45534;SDS011;35892;48.798;9.698;2022-07-29T09:44:47;3.55;;;2.60;;
45534;SDS011;35892;48.798;9.698;2022-07-29T09:47:16;4.57;;;2.80;;
45534;SDS011;35892;48.798;9.698;2022-07-29T09:52:24;3.53;;;2.60;;
45534;SDS011;35892;48.798;9.698;2022-07-29T09:54:52;3.22;;;2.58;;
45534;SDS011;35892;48.798;9.698;2022-07-29T10:00:00;2.92;;;2.58;;
45534;SDS011;35892;48.798;9.698;2022-07-29T10:02:36;2.95;;;2.72;;
45534;SDS011;35892;48.798;9.698;2022-07-29T10:05:15;3.78;;;3.00;;
45534;SDS011;35892;48.798;9.698;2022-07-29T10:07:49;2.80;;;2.60;;
45534;SDS011;35892;48.798;9.698;2022-07-29T10:13:03;3.33;;;2.42;;
45534;SDS011;35892;48.798;9.698;2022-07-29T10:15:42;3.10;;;2.80;;
45534;SDS011;35892;48.798;9.698;2022-07-29T10:18:12;4.55;;;2.65;;
45534;SDS011;35892;48.798;9.698;2022-07-29T10:20:40;2.88;;;2.60;;
45534;SDS011;35892;48.798;9.698;2022-07-29T10:23:09;3.50;;;2.65;;
45534;SDS011;35892;48.798;9.698;2022-07-29T10:25:38;2.72;;;2.42;;
45534;SDS011;35892;48.798;9.698;2022-07-29T10:28:11;3.92;;;2.58;;
45534;SDS011;35892;48.798;9.698;2022-07-29T10:30:42;3.10;;;2.78;;
45534;SDS011;35892;48.798;9.698;2022-07-29T10:38:48;2.90;;;2.40;;
45534;SDS011;35892;48.798;9.698;2022-07-29T10:44:04;3.00;;;2.70;;
45534;SDS011;35892;48.798;9.698;2022-07-29T10:46:42;3.67;;;2.70;;
45534;SDS011;35892;48.798;9.698;2022-07-29T10:57:30;5.18;;;2.90;;
45534;SDS011;35892;48.798;9.698;2022-07-29T11:00:25;3.50;;;2.60;;
45534;SDS011;35892;48.798;9.698;2022-07-29T11:02:53;3.40;;;2.67;;
45534;SDS011;35892;48.798;9.698;2022-07-29T11:05:24;3.58;;;3.28;;
45534;SDS011;35892;48.798;9.698;2022-07-29T11:10:45;3.55;;;2.50;;
45534;SDS011;35892;48.798;9.698;2022-07-29T11:16:14;3.10;;;2.60;;
45534;SDS011;35892;48.798;9.698;2022-07-29T11:21:42;3.22;;;2.22;;
45534;SDS011;35892;48.798;9.698;2022-07-29T11:27:08;5.88;;;3.05;;
45534;SDS011;35892;48.798;9.698;2022-07-29T11:32:22;2.90;;;2.70;;
45534;SDS011;35892;48.798;9.698;2022-07-29T11:49:25;5.22;;;3.10;;
45534;SDS011;35892;48.798;9.698;2022-07-29T11:51:58;5.40;;;3.20;;
45534;SDS011;35892;48.798;9.698;2022-07-29T11:54:32;5.10;;;2.80;;
45534;SDS011;35892;48.798;9.698;2022-07-29T11:57:20;2.88;;;2.50;;
45534;SDS011;35892;48.798;9.698;2022-07-29T12:00:06;6.15;;;2.70;;
45534;SDS011;35892;48.798;9.698;2022-07-29T12:02:43;4.50;;;3.60;;
45534;SDS011;35892;48.798;9.698;2022-07-29T12:05:14;4.28;;;3.10;;
45534;SDS011;35892;48.798;9.698;2022-07-29T12:08:05;5.72;;;3.15;;
45534;SDS011;35892;48.798;9.698;2022-07-29T12:10:40;5.03;;;3.17;;
45534;SDS011;35892;48.798;9.698;2022-07-29T12:13:10;4.65;;;2.80;;
45534;SDS011;35892;48.798;9.698;2022-07-29T12:15:37;6.13;;;3.00;;
45534;SDS011;35892;48.798;9.698;2022-07-29T12:18:16;4.28;;;3.00;;
45534;SDS011;35892;48.798;9.698;2022-07-29T12:20:49;4.10;;;3.60;;
45534;SDS011;35892;48.798;9.698;2022-07-29T12:23:33;3.53;;;3.23;;
45534;SDS011;35892;48.798;9.698;2022-07-29T12:26:03;4.15;;;3.75;;
45534;SDS011;35892;48.798;9.698;2022-07-29T12:28:38;4.13;;;3.72;;
45534;SDS011;35892;48.798;9.698;2022-07-29T12:31:05;6.10;;;3.67;;
45534;SDS011;35892;48.798;9.698;2022-07-29T12:33:38;5.88;;;3.78;;
45534;SDS011;35892;48.798;9.698;2022-07-29T12:36:10;3.70;;;3.40;;
45534;SDS011;35892;48.798;9.698;2022-07-29T12:38:43;5.38;;;4.10;;
45534;SDS011;35892;48.798;9.698;2022-07-29T12:41:10;4.15;;;3.40;;
45534;SDS011;35892;48.798;9.698;2022-07-29T12:43:51;6.20;;;3.33;;
45534;SDS011;35892;48.798;9.698;2022-07-29T12:46:23;8.05;;;4.18;;
45534;SDS011;35892;48.798;9.698;2022-07-29T12:48:50;6.07;;;3.80;;
45534;SDS011;35892;48.798;9.698;2022-07-29T12:51:37;5.45;;;4.18;;
45534;SDS011;35892;48.798;9.698;2022-07-29T12:54:09;7.40;;;4.00;;
45534;SDS011;35892;48.798;9.698;2022-07-29T12:56:38;7.65;;;3.80;;
45534;SDS011;35892;48.798;9.698;2022-07-29T12:59:17;4.75;;;3.90;;
45534;SDS011;35892;48.798;9.698;2022-07-29T13:01:47;6.63;;;4.00;;
45534;SDS011;35892;48.798;9.698;2022-07-29T13:04:27;4.60;;;4.00;;
45534;SDS011;35892;48.798;9.698;2022-07-29T13:07:01;8.20;;;3.63;;
45534;SDS011;35892;48.798;9.698;2022-07-29T13:09:42;5.88;;;4.35;;
45534;SDS011;35892;48.798;9.698;2022-07-29T13:12:14;4.68;;;3.42;;
45534;SDS011;35892;48.798;9.698;2022-07-29T13:14:42;5.50;;;3.92;;
45534;SDS011;35892;48.798;9.698;2022-07-29T13:17:20;5.78;;;4.07;;
45534;SDS011;35892;48.798;9.698;2022-07-29T13:19:50;4.50;;;3.55;;
45534;SDS011;35892;48.798;9.698;2022-07-29T13:22:20;5.88;;;3.97;;
45534;SDS011;35892;48.798;9.698;2022-07-29T13:27:31;5.28;;;3.67;;
45534;SDS011;35892;48.798;9.698;2022-07-29T13:30:00;4.18;;;3.78;;
45534;SDS011;35892;48.798;9.698;2022-07-29T13:32:30;6.15;;;3.70;;
45534;SDS011;35892;48.798;9.698;2022-07-29T13:35:01;6.13;;;4.07;;
45534;SDS011;35892;48.798;9.698;2022-07-29T13:37:31;4.05;;;3.65;;
45534;SDS011;35892;48.798;9.698;2022-07-29T13:40:01;4.60;;;3.47;;
45534;SDS011;35892;48.798;9.698;2022-07-29T13:42:29;4.45;;;3.22;;
45534;SDS011;35892;48.798;9.698;2022-07-29T13:44:57;3.55;;;2.90;;
45534;SDS011;35892;48.798;9.698;2022-07-29T13:47:24;3.30;;;2.60;;
45534;SDS011;35892;48.798;9.698;2022-07-29T13:49:58;3.88;;;3.45;;
45534;SDS011;35892;48.798;9.698;2022-07-29T13:52:26;3.00;;;2.58;;
45534;SDS011;35892;48.798;9.698;2022-07-29T13:54:57;4.38;;;2.70;;
45534;SDS011;35892;48.798;9.698;2022-07-29T13:57:24;2.47;;;2.15;;
45534;SDS011;35892;48.798;9.698;2022-07-29T13:59:51;2.15;;;1.95;;
45534;SDS011;35892;48.798;9.698;2022-07-29T14:02:19;2.03;;;1.80;;
45534;SDS011;35892;48.798;9.698;2022-07-29T14:04:51;1.83;;;1.70;;
45534;SDS011;35892;48.798;9.698;2022-07-29T14:07:19;1.52;;;1.42;;
45534;SDS011;35892;48.798;9.698;2022-07-29T14:09:46;2.92;;;1.60;;
45534;SDS011;35892;48.798;9.698;2022-07-29T14:12:13;2.10;;;1.75;;
45534;SDS011;35892;48.798;9.698;2022-07-29T14:14:40;2.10;;;1.90;;
45534;SDS011;35892;48.798;9.698;2022-07-29T14:17:08;2.47;;;1.70;;
45534;SDS011;35892;48.798;9.698;2022-07-29T14:19:37;2.28;;;2.08;;
45534;SDS011;35892;48.798;9.698;2022-07-29T14:22:05;4.00;;;2.40;;
45534;SDS011;35892;48.798;9.698;2022-07-29T14:24:36;3.77;;;2.73;;
45534;SDS011;35892;48.798;9.698;2022-07-29T14:27:04;2.40;;;2.20;;
45534;SDS011;35892;48.798;9.698;2022-07-29T14:29:32;3.13;;;2.47;;
45534;SDS011;35892;48.798;9.698;2022-07-29T14:34:35;2.95;;;2.28;;
45534;SDS011;35892;48.798;9.698;2022-07-29T14:37:03;2.83;;;2.45;;
45534;SDS011;35892;48.798;9.698;2022-07-29T14:39:34;2.05;;;1.85;;
45534;SDS011;35892;48.798;9.698;2022-07-29T14:42:08;3.05;;;2.20;;
45534;SDS011;35892;48.798;9.698;2022-07-29T14:44:38;2.83;;;2.20;;
45534;SDS011;35892;48.798;9.698;2022-07-29T14:47:06;2.22;;;1.98;;
45534;SDS011;35892;48.798;9.698;2022-07-29T14:49:36;2.33;;;1.85;;
45534;SDS011;35892;48.798;9.698;2022-07-29T14:52:03;2.00;;;1.70;;
45534;SDS011;35892;48.798;9.698;2022-07-29T14:54:30;2.00;;;1.80;;
45534;SDS011;35892;48.798;9.698;2022-07-29T14:56:57;3.47;;;2.10;;
45534;SDS011;35892;48.798;9.698;2022-07-29T14:59:26;2.08;;;1.55;;
45534;SDS011;35892;48.798;9.698;2022-07-29T15:01:53;1.92;;;1.58;;
45534;SDS011;35892;48.798;9.698;2022-07-29T15:04:22;2.83;;;1.70;;
45534;SDS011;35892;48.798;9.698;2022-07-29T15:06:49;2.08;;;1.90;;
45534;SDS011;35892;48.798;9.698;2022-07-29T15:09:18;2.13;;;1.90;;
45534;SDS011;35892;48.798;9.698;2022-07-29T15:11:47;2.17;;;1.92;;
45534;SDS011;35892;48.798;9.698;2022-07-29T15:14:14;3.25;;;2.00;;
45534;SDS011;35892;48.798;9.698;2022-07-29T15:16:41;2.75;;;1.70;;
45534;SDS011;35892;48.798;9.698;2022-07-29T15:19:13;3.33;;;2.40;;
45534;SDS011;35892;48.798;9.698;2022-07-29T15:21:42;3.13;;;2.25;;
45534;SDS011;35892;48.798;9.698;2022-07-29T15:24:15;2.47;;;2.20;;
45534;SDS011;35892;48.798;9.698;2022-07-29T15:26:43;2.50;;;2.00;;
45534;SDS011;35892;48.798;9.698;2022-07-29T15:29:10;2.92;;;2.20;;
45534;SDS011;35892;48.798;9.698;2022-07-29T15:31:36;2.20;;;1.85;;
45534;SDS011;35892;48.798;9.698;2022-07-29T15:34:06;3.22;;;2.20;;
45534;SDS011;35892;48.798;9.698;2022-07-29T15:36:35;2.33;;;2.00;;
45534;SDS011;35892;48.798;9.698;2022-07-29T15:39:19;2.50;;;2.30;;
45534;SDS011;35892;48.798;9.698;2022-07-29T15:41:49;2.38;;;2.15;;
45534;SDS011;35892;48.798;9.698;2022-07-29T15:44:16;2.58;;;2.03;;
45534;SDS011;35892;48.798;9.698;2022-07-29T15:46:43;2.25;;;2.05;;
45534;SDS011;35892;48.798;9.698;2022-07-29T15:49:35;2.63;;;2.20;;
45534;SDS011;35892;48.798;9.698;2022-07-29T15:52:12;2.83;;;2.25;;
45534;SDS011;35892;48.798;9.698;2022-07-29T15:54:39;2.92;;;2.05;;
45534;SDS011;35892;48.798;9.698;2022-07-29T15:57:08;2.63;;;2.28;;
45534;SDS011;35892;48.798;9.698;2022-07-29T15:59:35;2.92;;;2.22;;
45534;SDS011;35892;48.798;9.698;2022-07-29T16:02:02;2.85;;;1.85;;
45534;SDS011;35892;48.798;9.698;2022-07-29T16:04:30;2.30;;;2.08;;
45534;SDS011;35892;48.798;9.698;2022-07-29T16:06:57;3.38;;;2.60;;
45534;SDS011;35892;48.798;9.698;2022-07-29T16:09:26;2.67;;;2.30;;
45534;SDS011;35892;48.798;9.698;2022-07-29T16:11:54;4.22;;;2.38;;
45534;SDS011;35892;48.798;9.698;2022-07-29T16:14:21;3.22;;;2.53;;
45534;SDS011;35892;48.798;9.698;2022-07-29T16:19:22;2.60;;;2.25;;
45534;SDS011;35892;48.798;9.698;2022-07-29T16:21:49;2.53;;;2.13;;
45534;SDS011;35892;48.798;9.698;2022-07-29T16:24:17;3.25;;;2.35;;
45534;SDS011;35892;48.798;9.698;2022-07-29T16:26:43;2.15;;;1.95;;
45534;SDS011;35892;48.798;9.698;2022-07-29T16:29:10;2.95;;;2.25;;
45534;SDS011;35892;48.798;9.698;2022-07-29T16:31:37;4.38;;;2.35;;
45534;SDS011;35892;48.798;9.698;2022-07-29T16:34:06;4.25;;;2.67;;
45534;SDS011;35892;48.798;9.698;2022-07-29T16:36:33;4.95;;;2.70;;
45534;SDS011;35892;48.798;9.698;2022-07-29T16:39:00;2.90;;;2.55;;